sensor_id;sensor_type;location;lat;lon;timestamp;P1;durP1;ratioP1;P2;durP2;ratioP2
12968;SDS011;6549;53.128;8.182;2022-08-19T06:08:05;10.38;;;7.38;;
12968;SDS011;6549;53.128;8.182;2022-08-19T06:11:25;10.13;;;7.53;;
12968;SDS011;6549;53.128;8.182;2022-08-19T06:14:34;8.90;;;6.45;;
12968;SDS011;6549;53.128;8.182;2022-08-19T06:17:35;8.80;;;6.60;;
12968;SDS011;6549;53.128;8.182;2022-08-19T06:20:36;8.35;;;6.00;;
12968;SDS011;6549;53.128;8.182;2022-08-19T06:23:36;6.10;;;4.88;;
12968;SDS011;6549;53.128;8.182;2022-08-19T06:26:37;6.65;;;4.50;;
12968;SDS011;6549;53.128;8.182;2022-08-19T06:29:40;7.22;;;5.45;;
12968;SDS011;6549;53.128;8.182;2022-08-19T06:32:42;5.87;;;4.60;;
12968;SDS011;6549;53.128;8.182;2022-08-19T06:35:42;5.43;;;4.25;;
12968;SDS011;6549;53.128;8.182;2022-08-19T06:38:42;4.65;;;4.13;;
12968;SDS011;6549;53.128;8.182;2022-08-19T06:41:45;6.45;;;3.50;;
12968;SDS011;6549;53.128;8.182;2022-08-19T06:44:48;5.88;;;3.88;;
12968;SDS011;6549;53.128;8.182;2022-08-19T06:47:49;3.42;;;3.00;;
12968;SDS011;6549;53.128;8.182;2022-08-19T06:50:49;3.83;;;3.15;;
12968;SDS011;6549;53.128;8.182;2022-08-19T06:53:52;4.82;;;3.30;;
12968;SDS011;6549;53.128;8.182;2022-08-19T06:56:58;6.38;;;3.17;;
12968;SDS011;6549;53.128;8.182;2022-08-19T07:00:04;3.95;;;2.88;;
12968;SDS011;6549;53.128;8.182;2022-08-19T07:03:06;3.42;;;2.40;;
12968;SDS011;6549;53.128;8.182;2022-08-19T07:06:09;4.22;;;2.80;;
12968;SDS011;6549;53.128;8.182;2022-08-19T07:09:12;3.30;;;2.28;;
12968;SDS011;6549;53.128;8.182;2022-08-19T07:12:14;3.28;;;2.70;;
12968;SDS011;6549;53.128;8.182;2022-08-19T07:15:15;5.05;;;2.97;;
12968;SDS011;6549;53.128;8.182;2022-08-19T07:18:17;3.55;;;2.50;;
12968;SDS011;6549;53.128;8.182;2022-08-19T07:21:21;3.45;;;2.67;;
12968;SDS011;6549;53.128;8.182;2022-08-19T07:24:26;4.10;;;2.55;;
12968;SDS011;6549;53.128;8.182;2022-08-19T07:27:27;2.42;;;2.22;;
12968;SDS011;6549;53.128;8.182;2022-08-19T07:30:27;4.00;;;2.40;;
12968;SDS011;6549;53.128;8.182;2022-08-19T07:33:27;4.20;;;2.70;;
12968;SDS011;6549;53.128;8.182;2022-08-19T07:36:30;4.70;;;2.58;;
12968;SDS011;6549;53.128;8.182;2022-08-19T07:39:34;5.28;;;3.15;;
12968;SDS011;6549;53.128;8.182;2022-08-19T07:42:35;3.47;;;2.60;;
12968;SDS011;6549;53.128;8.182;2022-08-19T07:58:17;3.53;;;2.88;;
12968;SDS011;6549;53.128;8.182;2022-08-19T08:01:21;7.72;;;2.97;;
12968;SDS011;6549;53.128;8.182;2022-08-19T08:04:24;6.28;;;2.58;;
12968;SDS011;6549;53.128;8.182;2022-08-19T08:07:43;3.63;;;2.72;;
12968;SDS011;6549;53.128;8.182;2022-08-19T08:11:02;4.07;;;2.90;;
12968;SDS011;6549;53.128;8.182;2022-08-19T08:14:04;3.53;;;2.42;;
12968;SDS011;6549;53.128;8.182;2022-08-19T08:17:05;4.55;;;2.90;;
12968;SDS011;6549;53.128;8.182;2022-08-19T08:20:06;5.40;;;3.20;;
12968;SDS011;6549;53.128;8.182;2022-08-19T08:23:07;3.47;;;2.22;;
12968;SDS011;6549;53.128;8.182;2022-08-19T08:26:23;4.53;;;2.65;;
12968;SDS011;6549;53.128;8.182;2022-08-19T08:29:23;6.30;;;3.25;;
12968;SDS011;6549;53.128;8.182;2022-08-19T08:32:25;6.72;;;3.08;;
12968;SDS011;6549;53.128;8.182;2022-08-19T08:35:26;6.93;;;3.42;;
12968;SDS011;6549;53.128;8.182;2022-08-19T08:38:27;4.72;;;3.33;;
12968;SDS011;6549;53.128;8.182;2022-08-19T08:44:40;6.30;;;3.83;;
12968;SDS011;6549;53.128;8.182;2022-08-19T08:47:50;4.75;;;3.60;;
12968;SDS011;6549;53.128;8.182;2022-08-19T08:50:53;4.05;;;3.00;;
12968;SDS011;6549;53.128;8.182;2022-08-19T08:53:56;5.53;;;3.40;;
12968;SDS011;6549;53.128;8.182;2022-08-19T08:56:57;6.03;;;3.55;;
12968;SDS011;6549;53.128;8.182;2022-08-19T08:59:57;5.00;;;3.30;;
12968;SDS011;6549;53.128;8.182;2022-08-19T09:03:03;4.25;;;2.83;;
12968;SDS011;6549;53.128;8.182;2022-08-19T09:06:14;4.63;;;2.92;;
12968;SDS011;6549;53.128;8.182;2022-08-19T09:09:34;3.40;;;2.90;;
12968;SDS011;6549;53.128;8.182;2022-08-19T09:16:16;3.95;;;2.40;;
12968;SDS011;6549;53.128;8.182;2022-08-19T09:19:20;3.63;;;2.78;;
12968;SDS011;6549;53.128;8.182;2022-08-19T09:22:21;7.13;;;3.13;;
12968;SDS011;6549;53.128;8.182;2022-08-19T09:25:22;6.70;;;2.55;;
12968;SDS011;6549;53.128;8.182;2022-08-19T09:28:23;3.25;;;2.60;;
12968;SDS011;6549;53.128;8.182;2022-08-19T09:31:25;5.18;;;3.03;;
12968;SDS011;6549;53.128;8.182;2022-08-19T09:34:26;4.30;;;2.70;;
12968;SDS011;6549;53.128;8.182;2022-08-19T09:37:29;4.68;;;2.70;;
12968;SDS011;6549;53.128;8.182;2022-08-19T09:40:29;5.45;;;2.30;;
12968;SDS011;6549;53.128;8.182;2022-08-19T09:43:31;3.25;;;2.20;;
12968;SDS011;6549;53.128;8.182;2022-08-19T09:46:33;2.92;;;1.98;;
12968;SDS011;6549;53.128;8.182;2022-08-19T09:49:34;2.97;;;2.10;;
12968;SDS011;6549;53.128;8.182;2022-08-19T09:52:34;3.63;;;2.45;;
12968;SDS011;6549;53.128;8.182;2022-08-19T09:55:41;4.72;;;2.15;;
12968;SDS011;6549;53.128;8.182;2022-08-19T09:58:42;3.35;;;2.22;;
12968;SDS011;6549;53.128;8.182;2022-08-19T10:01:42;4.50;;;2.50;;
12968;SDS011;6549;53.128;8.182;2022-08-19T10:04:43;4.05;;;2.40;;
12968;SDS011;6549;53.128;8.182;2022-08-19T10:08:02;2.20;;;2.00;;
12968;SDS011;6549;53.128;8.182;2022-08-19T10:11:03;2.22;;;2.00;;
12968;SDS011;6549;53.128;8.182;2022-08-19T10:14:04;2.28;;;1.80;;
12968;SDS011;6549;53.128;8.182;2022-08-19T10:17:08;4.55;;;2.10;;
12968;SDS011;6549;53.128;8.182;2022-08-19T10:20:08;2.80;;;2.00;;
12968;SDS011;6549;53.128;8.182;2022-08-19T10:23:09;2.63;;;1.88;;
12968;SDS011;6549;53.128;8.182;2022-08-19T10:26:09;2.55;;;1.95;;
12968;SDS011;6549;53.128;8.182;2022-08-19T10:29:10;3.90;;;1.98;;
12968;SDS011;6549;53.128;8.182;2022-08-19T10:32:11;2.10;;;1.90;;
12968;SDS011;6549;53.128;8.182;2022-08-19T10:35:12;4.75;;;2.00;;
12968;SDS011;6549;53.128;8.182;2022-08-19T10:38:13;3.08;;;2.20;;
12968;SDS011;6549;53.128;8.182;2022-08-19T10:41:15;3.67;;;1.92;;
12968;SDS011;6549;53.128;8.182;2022-08-19T10:44:19;3.63;;;1.90;;
12968;SDS011;6549;53.128;8.182;2022-08-19T10:47:21;5.18;;;1.92;;
12968;SDS011;6549;53.128;8.182;2022-08-19T10:50:22;2.80;;;1.90;;
12968;SDS011;6549;53.128;8.182;2022-08-19T10:53:41;2.22;;;1.80;;
12968;SDS011;6549;53.128;8.182;2022-08-19T10:56:41;2.90;;;1.90;;
12968;SDS011;6549;53.128;8.182;2022-08-19T10:59:51;2.13;;;1.80;;
12968;SDS011;6549;53.128;8.182;2022-08-19T11:02:51;1.95;;;1.70;;
12968;SDS011;6549;53.128;8.182;2022-08-19T11:06:02;2.17;;;1.60;;
12968;SDS011;6549;53.128;8.182;2022-08-19T11:09:05;2.08;;;1.88;;
12968;SDS011;6549;53.128;8.182;2022-08-19T11:12:06;3.40;;;1.83;;
12968;SDS011;6549;53.128;8.182;2022-08-19T11:15:08;2.75;;;2.05;;
12968;SDS011;6549;53.128;8.182;2022-08-19T11:18:10;3.58;;;1.60;;
12968;SDS011;6549;53.128;8.182;2022-08-19T11:24:19;3.25;;;1.90;;
12968;SDS011;6549;53.128;8.182;2022-08-19T11:27:21;4.10;;;2.00;;
12968;SDS011;6549;53.128;8.182;2022-08-19T11:30:21;2.63;;;1.92;;
12968;SDS011;6549;53.128;8.182;2022-08-19T11:33:22;3.10;;;1.90;;
12968;SDS011;6549;53.128;8.182;2022-08-19T11:36:23;2.25;;;1.90;;
12968;SDS011;6549;53.128;8.182;2022-08-19T11:39:23;3.28;;;2.00;;
12968;SDS011;6549;53.128;8.182;2022-08-19T11:42:24;1.67;;;1.50;;
12968;SDS011;6549;53.128;8.182;2022-08-19T11:45:43;3.33;;;1.80;;
12968;SDS011;6549;53.128;8.182;2022-08-19T11:48:44;2.35;;;2.00;;
12968;SDS011;6549;53.128;8.182;2022-08-19T11:51:44;2.75;;;1.65;;
12968;SDS011;6549;53.128;8.182;2022-08-19T11:54:45;3.40;;;1.83;;
12968;SDS011;6549;53.128;8.182;2022-08-19T11:57:46;4.28;;;1.90;;
12968;SDS011;6549;53.128;8.182;2022-08-19T12:00:46;2.78;;;2.08;;
12968;SDS011;6549;53.128;8.182;2022-08-19T12:03:47;3.38;;;1.85;;
12968;SDS011;6549;53.128;8.182;2022-08-19T12:06:49;2.53;;;1.90;;
12968;SDS011;6549;53.128;8.182;2022-08-19T12:09:50;1.90;;;1.70;;
12968;SDS011;6549;53.128;8.182;2022-08-19T12:12:50;2.55;;;1.90;;
12968;SDS011;6549;53.128;8.182;2022-08-19T12:15:51;4.63;;;1.50;;
12968;SDS011;6549;53.128;8.182;2022-08-19T12:18:53;1.70;;;1.50;;
12968;SDS011;6549;53.128;8.182;2022-08-19T12:21:58;2.55;;;1.92;;
12968;SDS011;6549;53.128;8.182;2022-08-19T12:25:00;3.10;;;1.80;;
12968;SDS011;6549;53.128;8.182;2022-08-19T12:28:01;2.60;;;2.05;;
12968;SDS011;6549;53.128;8.182;2022-08-19T12:31:02;2.58;;;1.60;;
12968;SDS011;6549;53.128;8.182;2022-08-19T12:34:03;2.60;;;1.83;;
12968;SDS011;6549;53.128;8.182;2022-08-19T12:37:04;2.20;;;1.90;;
12968;SDS011;6549;53.128;8.182;2022-08-19T12:50:39;3.58;;;2.00;;
12968;SDS011;6549;53.128;8.182;2022-08-19T12:53:41;4.18;;;2.13;;
12968;SDS011;6549;53.128;8.182;2022-08-19T12:56:42;2.53;;;1.95;;
12968;SDS011;6549;53.128;8.182;2022-08-19T12:59:42;2.00;;;1.80;;
12968;SDS011;6549;53.128;8.182;2022-08-19T13:02:43;2.50;;;1.70;;
12968;SDS011;6549;53.128;8.182;2022-08-19T13:05:45;3.33;;;1.85;;
12968;SDS011;6549;53.128;8.182;2022-08-19T13:08:45;2.13;;;2.00;;
12968;SDS011;6549;53.128;8.182;2022-08-19T13:11:46;2.75;;;1.85;;
12968;SDS011;6549;53.128;8.182;2022-08-19T13:14:46;1.90;;;1.70;;
12968;SDS011;6549;53.128;8.182;2022-08-19T13:17:50;2.47;;;1.98;;
12968;SDS011;6549;53.128;8.182;2022-08-19T13:20:52;2.40;;;2.10;;
12968;SDS011;6549;53.128;8.182;2022-08-19T13:23:53;3.72;;;2.00;;
12968;SDS011;6549;53.128;8.182;2022-08-19T13:26:54;2.40;;;2.03;;
12968;SDS011;6549;53.128;8.182;2022-08-19T15:45:41;5.30;;;3.22;;
12968;SDS011;6549;53.128;8.182;2022-08-19T15:48:41;3.53;;;2.90;;
12968;SDS011;6549;53.128;8.182;2022-08-19T15:51:43;3.30;;;2.67;;
12968;SDS011;6549;53.128;8.182;2022-08-19T15:54:45;3.95;;;3.17;;
12968;SDS011;6549;53.128;8.182;2022-08-19T15:57:45;4.27;;;3.37;;
12968;SDS011;6549;53.128;8.182;2022-08-19T16:01:05;4.65;;;3.55;;
12968;SDS011;6549;53.128;8.182;2022-08-19T16:04:25;5.82;;;4.00;;
12968;SDS011;6549;53.128;8.182;2022-08-19T16:07:44;4.43;;;3.10;;
12968;SDS011;6549;53.128;8.182;2022-08-19T16:10:44;4.70;;;3.53;;
12968;SDS011;6549;53.128;8.182;2022-08-19T16:13:45;3.42;;;3.00;;
12968;SDS011;6549;53.128;8.182;2022-08-19T16:16:50;3.70;;;2.97;;
12968;SDS011;6549;53.128;8.182;2022-08-19T16:19:51;3.28;;;2.97;;
12968;SDS011;6549;53.128;8.182;2022-08-19T16:22:51;3.17;;;2.50;;
12968;SDS011;6549;53.128;8.182;2022-08-19T16:25:51;2.50;;;2.30;;
12968;SDS011;6549;53.128;8.182;2022-08-19T16:28:52;3.67;;;2.77;;
12968;SDS011;6549;53.128;8.182;2022-08-19T16:31:52;3.30;;;2.80;;
12968;SDS011;6549;53.128;8.182;2022-08-19T16:34:54;3.45;;;2.78;;
12968;SDS011;6549;53.128;8.182;2022-08-19T16:37:55;3.30;;;2.92;;
12968;SDS011;6549;53.128;8.182;2022-08-19T16:40:55;3.35;;;2.90;;
12968;SDS011;6549;53.128;8.182;2022-08-19T16:43:56;2.85;;;2.28;;
12968;SDS011;6549;53.128;8.182;2022-08-19T16:46:56;4.22;;;2.22;;
12968;SDS011;6549;53.128;8.182;2022-08-19T16:49:57;2.55;;;2.15;;
12968;SDS011;6549;53.128;8.182;2022-08-19T16:52:58;3.58;;;2.10;;
12968;SDS011;6549;53.128;8.182;2022-08-19T16:55:59;4.72;;;2.28;;
12968;SDS011;6549;53.128;8.182;2022-08-19T16:58:59;3.72;;;2.20;;
12968;SDS011;6549;53.128;8.182;2022-08-19T17:02:00;4.53;;;2.22;;
12968;SDS011;6549;53.128;8.182;2022-08-19T17:05:01;2.97;;;2.20;;
12968;SDS011;6549;53.128;8.182;2022-08-19T17:08:02;2.35;;;1.90;;
12968;SDS011;6549;53.128;8.182;2022-08-19T17:11:02;2.42;;;1.90;;
12968;SDS011;6549;53.128;8.182;2022-08-19T17:14:04;4.15;;;2.50;;
12968;SDS011;6549;53.128;8.182;2022-08-19T17:17:05;3.70;;;2.28;;
12968;SDS011;6549;53.128;8.182;2022-08-19T17:20:05;2.92;;;2.25;;
12968;SDS011;6549;53.128;8.182;2022-08-19T17:23:07;2.90;;;2.20;;
12968;SDS011;6549;53.128;8.182;2022-08-19T17:26:09;3.97;;;2.20;;
12968;SDS011;6549;53.128;8.182;2022-08-19T17:29:13;3.53;;;2.55;;
12968;SDS011;6549;53.128;8.182;2022-08-19T17:32:13;3.28;;;2.47;;
12968;SDS011;6549;53.128;8.182;2022-08-19T17:35:14;3.03;;;2.63;;
12968;SDS011;6549;53.128;8.182;2022-08-19T17:38:20;4.35;;;2.47;;
12968;SDS011;6549;53.128;8.182;2022-08-19T17:44:23;2.53;;;2.13;;
12968;SDS011;6549;53.128;8.182;2022-08-19T17:47:24;4.97;;;2.75;;
12968;SDS011;6549;53.128;8.182;2022-08-19T17:50:25;3.30;;;2.47;;
12968;SDS011;6549;53.128;8.182;2022-08-19T17:53:26;3.95;;;2.53;;
12968;SDS011;6549;53.128;8.182;2022-08-19T17:56:27;2.65;;;2.15;;
12968;SDS011;6549;53.128;8.182;2022-08-19T17:59:29;3.47;;;2.30;;
12968;SDS011;6549;53.128;8.182;2022-08-19T18:02:30;3.20;;;2.05;;
12968;SDS011;6549;53.128;8.182;2022-08-19T18:05:32;2.10;;;1.90;;
12968;SDS011;6549;53.128;8.182;2022-08-19T18:08:36;2.63;;;2.03;;
12968;SDS011;6549;53.128;8.182;2022-08-19T18:11:38;2.58;;;1.95;;
12968;SDS011;6549;53.128;8.182;2022-08-19T18:14:38;3.35;;;2.42;;
12968;SDS011;6549;53.128;8.182;2022-08-19T18:17:40;2.85;;;2.30;;
12968;SDS011;6549;53.128;8.182;2022-08-19T18:20:40;7.47;;;6.22;;
12968;SDS011;6549;53.128;8.182;2022-08-19T18:23:41;9.02;;;6.88;;
12968;SDS011;6549;53.128;8.182;2022-08-19T18:26:41;6.63;;;4.72;;
12968;SDS011;6549;53.128;8.182;2022-08-19T18:29:42;5.00;;;3.67;;
12968;SDS011;6549;53.128;8.182;2022-08-19T18:32:43;8.77;;;4.78;;
12968;SDS011;6549;53.128;8.182;2022-08-19T18:35:46;4.88;;;4.00;;
12968;SDS011;6549;53.128;8.182;2022-08-19T18:38:47;4.70;;;3.55;;
12968;SDS011;6549;53.128;8.182;2022-08-19T18:42:11;7.85;;;5.90;;
12968;SDS011;6549;53.128;8.182;2022-08-19T18:45:31;7.53;;;6.80;;
12968;SDS011;6549;53.128;8.182;2022-08-19T18:48:50;8.95;;;6.22;;
12968;SDS011;6549;53.128;8.182;2022-08-19T18:52:04;7.78;;;6.65;;
12968;SDS011;6549;53.128;8.182;2022-08-19T18:55:05;5.55;;;4.38;;
12968;SDS011;6549;53.128;8.182;2022-08-19T18:58:06;6.43;;;5.25;;
12968;SDS011;6549;53.128;8.182;2022-08-19T19:04:17;7.22;;;6.30;;
12968;SDS011;6549;53.128;8.182;2022-08-19T19:07:19;8.15;;;6.35;;
12968;SDS011;6549;53.128;8.182;2022-08-19T19:10:20;10.32;;;7.63;;
12968;SDS011;6549;53.128;8.182;2022-08-19T19:13:20;7.60;;;5.90;;
12968;SDS011;6549;53.128;8.182;2022-08-19T19:16:20;7.82;;;6.45;;
12968;SDS011;6549;53.128;8.182;2022-08-19T19:19:21;8.45;;;6.65;;
12968;SDS011;6549;53.128;8.182;2022-08-19T19:22:22;5.38;;;4.70;;
12968;SDS011;6549;53.128;8.182;2022-08-19T19:25:23;6.43;;;4.80;;
12968;SDS011;6549;53.128;8.182;2022-08-19T19:28:24;11.00;;;7.72;;
12968;SDS011;6549;53.128;8.182;2022-08-19T19:31:27;8.68;;;7.25;;
12968;SDS011;6549;53.128;8.182;2022-08-19T19:34:28;7.45;;;6.38;;
12968;SDS011;6549;53.128;8.182;2022-08-19T19:37:28;10.15;;;7.65;;
12968;SDS011;6549;53.128;8.182;2022-08-19T19:40:28;8.93;;;7.25;;
12968;SDS011;6549;53.128;8.182;2022-08-19T19:43:28;8.10;;;6.72;;
12968;SDS011;6549;53.128;8.182;2022-08-19T19:46:30;9.40;;;7.07;;
12968;SDS011;6549;53.128;8.182;2022-08-19T19:49:31;8.32;;;7.35;;
12968;SDS011;6549;53.128;8.182;2022-08-19T19:52:32;8.00;;;6.32;;
12968;SDS011;6549;53.128;8.182;2022-08-19T19:55:32;8.60;;;5.70;;
12968;SDS011;6549;53.128;8.182;2022-08-19T19:58:33;6.03;;;5.43;;
12968;SDS011;6549;53.128;8.182;2022-08-19T20:01:36;9.18;;;7.18;;
12968;SDS011;6549;53.128;8.182;2022-08-19T20:04:36;7.38;;;5.53;;
12968;SDS011;6549;53.128;8.182;2022-08-19T20:07:38;7.78;;;5.88;;
12968;SDS011;6549;53.128;8.182;2022-08-19T20:10:59;6.40;;;5.30;;
12968;SDS011;6549;53.128;8.182;2022-08-19T20:14:03;5.90;;;5.30;;
12968;SDS011;6549;53.128;8.182;2022-08-19T20:17:05;7.22;;;6.45;;
12968;SDS011;6549;53.128;8.182;2022-08-19T20:20:06;9.25;;;7.53;;
12968;SDS011;6549;53.128;8.182;2022-08-19T20:23:11;6.82;;;5.93;;
12968;SDS011;6549;53.128;8.182;2022-08-19T20:26:12;5.88;;;5.05;;
12968;SDS011;6549;53.128;8.182;2022-08-19T20:29:13;7.65;;;6.95;;
12968;SDS011;6549;53.128;8.182;2022-08-19T20:32:15;7.43;;;5.47;;
12968;SDS011;6549;53.128;8.182;2022-08-19T20:35:16;10.07;;;8.38;;
12968;SDS011;6549;53.128;8.182;2022-08-19T20:38:17;11.80;;;6.50;;
12968;SDS011;6549;53.128;8.182;2022-08-19T20:41:18;6.07;;;5.47;;
12968;SDS011;6549;53.128;8.182;2022-08-19T20:44:19;10.30;;;7.65;;
12968;SDS011;6549;53.128;8.182;2022-08-19T20:47:20;8.70;;;7.20;;
12968;SDS011;6549;53.128;8.182;2022-08-19T20:50:20;8.55;;;6.85;;
12968;SDS011;6549;53.128;8.182;2022-08-19T20:53:21;8.93;;;7.63;;
12968;SDS011;6549;53.128;8.182;2022-08-19T20:56:22;7.40;;;6.20;;
12968;SDS011;6549;53.128;8.182;2022-08-19T20:59:23;8.30;;;6.57;;
12968;SDS011;6549;53.128;8.182;2022-08-19T21:02:25;8.57;;;6.90;;
12968;SDS011;6549;53.128;8.182;2022-08-19T21:05:25;9.15;;;6.80;;
12968;SDS011;6549;53.128;8.182;2022-08-19T21:08:26;10.38;;;7.63;;
12968;SDS011;6549;53.128;8.182;2022-08-19T21:11:26;7.00;;;5.60;;
12968;SDS011;6549;53.128;8.182;2022-08-19T21:14:26;7.82;;;7.10;;
12968;SDS011;6549;53.128;8.182;2022-08-19T21:17:27;6.47;;;4.95;;
12968;SDS011;6549;53.128;8.182;2022-08-19T21:20:27;5.63;;;4.68;;
12968;SDS011;6549;53.128;8.182;2022-08-19T21:23:28;6.20;;;4.80;;
12968;SDS011;6549;53.128;8.182;2022-08-19T21:26:29;8.32;;;6.20;;
12968;SDS011;6549;53.128;8.182;2022-08-19T21:29:29;5.07;;;4.55;;
12968;SDS011;6549;53.128;8.182;2022-08-19T21:32:31;6.30;;;4.87;;
12968;SDS011;6549;53.128;8.182;2022-08-19T21:35:31;5.20;;;4.53;;
12968;SDS011;6549;53.128;8.182;2022-08-19T21:38:32;7.35;;;6.40;;
12968;SDS011;6549;53.128;8.182;2022-08-19T21:41:32;7.03;;;5.95;;
12968;SDS011;6549;53.128;8.182;2022-08-19T21:44:33;7.75;;;5.93;;
12968;SDS011;6549;53.128;8.182;2022-08-19T21:47:34;6.03;;;4.80;;
12968;SDS011;6549;53.128;8.182;2022-08-19T21:50:34;5.38;;;4.28;;
12968;SDS011;6549;53.128;8.182;2022-08-19T21:53:34;7.25;;;5.95;;
12968;SDS011;6549;53.128;8.182;2022-08-19T21:56:36;5.05;;;4.55;;
12968;SDS011;6549;53.128;8.182;2022-08-19T21:59:37;5.45;;;4.32;;
12968;SDS011;6549;53.128;8.182;2022-08-19T22:02:38;7.00;;;4.88;;
12968;SDS011;6549;53.128;8.182;2022-08-19T22:05:39;8.82;;;7.93;;
12968;SDS011;6549;53.128;8.182;2022-08-19T22:08:39;7.63;;;5.35;;
12968;SDS011;6549;53.128;8.182;2022-08-19T22:11:41;6.83;;;5.50;;
12968;SDS011;6549;53.128;8.182;2022-08-19T22:14:42;7.15;;;5.75;;
12968;SDS011;6549;53.128;8.182;2022-08-19T22:17:42;5.93;;;4.82;;
12968;SDS011;6549;53.128;8.182;2022-08-19T22:20:43;8.68;;;6.22;;
12968;SDS011;6549;53.128;8.182;2022-08-19T22:23:44;6.70;;;4.85;;
12968;SDS011;6549;53.128;8.182;2022-08-19T22:26:45;7.30;;;5.97;;
12968;SDS011;6549;53.128;8.182;2022-08-19T22:29:45;7.30;;;5.70;;
12968;SDS011;6549;53.128;8.182;2022-08-19T22:32:47;5.82;;;4.50;;
12968;SDS011;6549;53.128;8.182;2022-08-19T22:35:50;5.80;;;4.65;;
12968;SDS011;6549;53.128;8.182;2022-08-19T22:38:51;6.00;;;4.93;;
12968;SDS011;6549;53.128;8.182;2022-08-19T22:41:53;5.60;;;4.60;;
12968;SDS011;6549;53.128;8.182;2022-08-19T22:44:55;5.47;;;4.63;;
12968;SDS011;6549;53.128;8.182;2022-08-19T22:47:57;6.53;;;4.65;;
12968;SDS011;6549;53.128;8.182;2022-08-19T22:50:59;6.38;;;4.55;;
12968;SDS011;6549;53.128;8.182;2022-08-19T22:54:18;5.47;;;4.78;;
12968;SDS011;6549;53.128;8.182;2022-08-19T22:57:19;6.70;;;5.68;;
12968;SDS011;6549;53.128;8.182;2022-08-19T23:00:21;8.45;;;7.22;;
12968;SDS011;6549;53.128;8.182;2022-08-19T23:06:23;11.50;;;9.93;;
12968;SDS011;6549;53.128;8.182;2022-08-19T23:09:24;9.88;;;8.88;;
12968;SDS011;6549;53.128;8.182;2022-08-19T23:12:25;7.38;;;6.45;;
12968;SDS011;6549;53.128;8.182;2022-08-19T23:15:30;7.22;;;6.47;;
12968;SDS011;6549;53.128;8.182;2022-08-19T23:18:31;11.05;;;8.98;;
12968;SDS011;6549;53.128;8.182;2022-08-19T23:21:32;15.30;;;12.25;;
12968;SDS011;6549;53.128;8.182;2022-08-19T23:24:35;10.85;;;7.85;;
12968;SDS011;6549;53.128;8.182;2022-08-19T23:27:35;7.28;;;6.25;;
12968;SDS011;6549;53.128;8.182;2022-08-19T23:30:54;7.05;;;5.93;;
12968;SDS011;6549;53.128;8.182;2022-08-19T23:33:56;6.72;;;5.70;;
12968;SDS011;6549;53.128;8.182;2022-08-19T23:36:56;8.20;;;6.82;;
12968;SDS011;6549;53.128;8.182;2022-08-19T23:39:56;13.32;;;11.63;;
12968;SDS011;6549;53.128;8.182;2022-08-19T23:42:57;12.57;;;10.40;;
12968;SDS011;6549;53.128;8.182;2022-08-19T23:45:58;9.45;;;7.68;;
12968;SDS011;6549;53.128;8.182;2022-08-19T23:49:00;13.00;;;11.57;;
12968;SDS011;6549;53.128;8.182;2022-08-19T23:52:00;8.85;;;7.80;;
12968;SDS011;6549;53.128;8.182;2022-08-19T23:55:01;11.15;;;9.75;;
12968;SDS011;6549;53.128;8.182;2022-08-19T23:58:05;10.13;;;8.60;;
